Uptown, Indiana
Current Conditions -  °F | °C
As of 11:53 PM on Monday 22 Dec 2014 (Local Time) from KEYE Reporting Station
Light Rain Light Rain  
Wind Chill: 44°   Ceiling: 1800
Heat Index: 47°   Visibility: 10mi
Dew Point: 42°   Wind: 7mph
Humidity: 83%   Direction: 140°SE
Pressure: 29.65"   Gusts: NA
Location:  39.8275°N, 86.1353°W
Report Text: KEYE 230453Z AUTO 14006KT 10SM -RA OVC018 08/06 A2965 RMK AO2 RAE00B27E37B53 SLP044 P0000 T00830056 400831033
Loading
Personal Weather Stations






























Interactive Weather Map New forecast layout! Learn more

10-Day Weather Forecast

Advertisements
Track Severe Weather on mobile